createdAt,value
2019-02-22T00:00:46.707Z,95464.37
2019-02-22T00:03:15.332Z,95465.83
2019-02-22T00:05:44.148Z,95467.88
2019-02-22T00:08:12.720Z,95461.67
2019-02-22T00:10:41.285Z,95456.24
2019-02-22T00:13:09.952Z,95459.59
2019-02-22T00:15:38.679Z,95455.34
2019-02-22T00:18:07.175Z,95446.48
2019-02-22T00:20:35.781Z,95452.22
2019-02-22T00:23:04.495Z,95449.28
2019-02-22T00:25:33.119Z,95447.44
2019-02-22T00:28:01.808Z,95445.62
2019-02-22T00:30:30.374Z,95431.74
2019-02-22T00:32:59.113Z,95434.51
2019-02-22T00:35:27.813Z,95428.61
2019-02-22T00:37:56.255Z,95402.82
2019-02-22T00:40:24.899Z,95413.87
2019-02-22T00:42:53.706Z,95413.04
2019-02-22T00:45:22.197Z,95404.74
2019-02-22T00:47:50.816Z,95403.55
2019-02-22T00:50:19.493Z,95400.39
2019-02-22T00:52:48.347Z,95392.92
2019-02-22T00:55:16.895Z,95394.96
2019-02-22T00:57:45.579Z,95390.11
2019-02-22T01:00:14.673Z,95393.84
2019-02-22T01:02:43.310Z,95385.16
2019-02-22T01:05:12.000Z,95388.03
2019-02-22T01:07:40.709Z,95381.16
2019-02-22T01:10:09.339Z,95379.53
2019-02-22T01:12:38.011Z,95378.42
2019-02-22T01:15:07.028Z,95373.98
2019-02-22T01:17:35.650Z,95376.32
2019-02-22T01:20:05.108Z,95364.84
2019-02-22T01:22:33.730Z,95374.00
2019-02-22T01:25:02.354Z,95366.09
2019-02-22T01:27:30.945Z,95358.14
2019-02-22T01:29:59.436Z,95361.20
2019-02-22T01:32:28.054Z,95357.81
2019-02-22T01:34:56.963Z,95350.66
2019-02-22T01:37:25.537Z,95355.92
2019-02-22T01:39:54.959Z,95347.23
2019-02-22T01:42:23.630Z,95350.47
2019-02-22T01:44:52.181Z,95344.62
2019-02-22T01:47:20.668Z,95350.14
2019-02-22T01:49:49.441Z,95352.22
2019-02-22T01:52:18.091Z,95348.00
2019-02-22T01:54:46.705Z,95344.02
2019-02-22T01:57:15.373Z,95324.16
2019-02-22T01:59:44.349Z,95329.73
2019-02-22T02:02:13.019Z,95329.40
2019-02-22T02:04:41.644Z,95323.78
2019-02-22T02:07:10.281Z,95318.45
2019-02-22T02:09:38.841Z,95311.75
2019-02-22T02:12:07.520Z,95308.63
2019-02-22T02:14:36.085Z,95305.77
2019-02-22T02:17:04.704Z,95302.08
2019-02-22T02:19:33.319Z,95296.98
2019-02-22T02:22:01.941Z,95298.33
2019-02-22T02:24:30.574Z,95286.03
2019-02-22T02:26:59.113Z,95290.91
2019-02-22T02:29:27.696Z,95289.81
2019-02-22T02:31:56.354Z,95283.55
2019-02-22T02:34:25.141Z,95284.59
2019-02-22T02:36:53.789Z,95278.75
2019-02-22T02:39:22.340Z,95274.83
2019-02-22T02:41:50.935Z,95275.41
2019-02-22T02:44:19.497Z,95288.23
2019-02-22T02:46:49.898Z,95272.94
2019-02-22T02:49:18.583Z,95273.48
2019-02-22T02:51:47.150Z,95275.11
2019-02-22T02:54:15.709Z,95272.56
2019-02-22T02:56:46.275Z,95268.37
2019-02-22T02:59:14.661Z,95267.91
2019-02-22T03:01:43.362Z,95261.10
2019-02-22T03:04:11.971Z,95255.95
2019-02-22T03:06:42.241Z,95253.79
2019-02-22T03:09:10.795Z,95243.39
2019-02-22T03:11:39.312Z,95240.20
2019-02-22T03:14:07.944Z,95239.46
2019-02-22T03:16:36.571Z,95240.16
2019-02-22T03:19:05.481Z,95242.96
2019-02-22T03:21:34.111Z,95236.51
2019-02-22T03:24:02.670Z,95233.73
2019-02-22T03:26:31.279Z,95234.02
2019-02-22T03:28:59.827Z,95227.63
2019-02-22T03:31:28.449Z,95224.43
2019-02-22T03:33:57.069Z,95220.59
2019-02-22T03:36:25.628Z,95217.23
2019-02-22T03:38:54.194Z,95208.06
2019-02-22T03:41:32.194Z,95219.44
2019-02-22T03:43:53.136Z,95207.37
2019-02-22T03:46:21.803Z,95203.43
2019-02-22T03:48:50.458Z,95202.00
2019-02-22T03:51:19.095Z,95207.95
2019-02-22T03:53:48.954Z,95209.77
2019-02-22T03:56:17.576Z,95202.03
2019-02-22T03:58:46.210Z,95202.68
2019-02-22T04:01:14.781Z,95199.08
2019-02-22T04:03:43.656Z,95193.73
2019-02-22T04:06:12.296Z,95198.63
2019-02-22T04:08:40.871Z,95190.52
2019-02-22T04:11:09.466Z,95194.12
2019-02-22T04:13:38.090Z,95188.77
2019-02-22T04:16:06.705Z,95178.34
2019-02-22T04:18:35.667Z,95172.35
2019-02-22T04:21:04.222Z,95169.64
2019-02-22T04:23:32.785Z,95168.78
2019-02-22T04:26:01.708Z,95167.11
2019-02-22T04:28:30.340Z,95162.44
2019-02-22T04:30:58.854Z,95157.70
2019-02-22T04:33:27.452Z,95145.56
2019-02-22T04:35:56.088Z,95156.96
2019-02-22T04:38:24.664Z,95147.17
2019-02-22T04:40:53.222Z,95154.22
2019-02-22T04:43:21.778Z,95153.42
2019-02-22T04:45:50.417Z,95141.16
2019-02-22T04:48:19.103Z,95139.16
2019-02-22T04:50:47.582Z,95139.23
2019-02-22T04:53:16.129Z,95129.70
2019-02-22T04:55:45.095Z,95131.35
2019-02-22T04:58:13.667Z,95137.08
2019-02-22T05:00:42.254Z,95135.53
2019-02-22T05:03:10.927Z,95137.34
2019-02-22T05:05:39.628Z,95133.71
2019-02-22T05:08:08.216Z,95136.88
2019-02-22T05:10:36.868Z,95129.38
2019-02-22T05:13:05.526Z,95132.48
2019-02-22T05:15:34.092Z,95127.88
2019-02-22T05:18:02.700Z,95134.22
2019-02-22T05:20:31.315Z,95132.82
2019-02-22T05:23:03.783Z,95131.16
2019-02-22T05:25:30.200Z,95131.66
2019-02-22T05:28:01.504Z,95129.47
2019-02-22T05:30:30.149Z,95129.63
2019-02-22T05:32:58.777Z,95119.91
2019-02-22T05:35:27.278Z,95121.31
2019-02-22T05:37:55.832Z,95122.53
2019-02-22T05:40:24.544Z,95125.28
2019-02-22T05:42:53.099Z,95111.16
2019-02-22T05:45:21.583Z,95116.28
2019-02-22T05:47:50.183Z,95122.91
2019-02-22T05:50:18.806Z,95114.55
2019-02-22T05:52:47.395Z,95113.34
2019-02-22T05:55:16.439Z,95113.50
2019-02-22T05:57:44.998Z,95121.10
2019-02-22T06:00:14.334Z,95111.17
2019-02-22T06:02:43.014Z,95115.89
2019-02-22T06:05:11.656Z,95109.51
2019-02-22T06:07:40.286Z,95092.45
2019-02-22T06:10:10.341Z,95112.69
2019-02-22T06:12:38.967Z,95105.04
2019-02-22T06:15:08.691Z,95107.05
2019-02-22T06:17:37.370Z,95103.66
2019-02-22T06:20:08.901Z,95111.45
2019-02-22T06:22:37.456Z,95110.37
2019-02-22T06:25:07.317Z,95106.47
2019-02-22T06:27:35.930Z,95109.88
2019-02-22T06:30:06.862Z,95104.14
2019-02-22T06:32:35.725Z,95101.99
2019-02-22T06:35:04.842Z,95100.97
2019-02-22T06:37:33.426Z,95095.25
2019-02-22T06:40:02.073Z,95093.94
2019-02-22T06:42:30.637Z,95094.79
2019-02-22T06:44:59.217Z,95088.81
2019-02-22T06:47:27.807Z,95086.46
2019-02-22T06:49:56.490Z,95086.83
2019-02-22T06:52:25.129Z,95084.58
2019-02-22T06:54:53.756Z,95079.16
2019-02-22T06:57:22.333Z,95081.69
2019-02-22T06:59:50.952Z,95075.59
2019-02-22T07:02:19.932Z,95073.48
2019-02-22T07:04:48.486Z,95065.44
2019-02-22T07:07:17.185Z,95061.89
2019-02-22T07:09:45.853Z,95055.72
2019-02-22T07:12:25.364Z,95056.80
2019-02-22T07:14:53.966Z,95052.69
2019-02-22T07:17:22.516Z,95053.52
2019-02-22T07:19:51.165Z,95048.92
2019-02-22T07:22:19.854Z,95053.13
2019-02-22T07:24:48.536Z,95044.98
2019-02-22T07:27:17.182Z,95040.67
2019-02-22T07:29:45.722Z,95040.18
2019-02-22T07:32:14.287Z,95035.84
2019-02-22T07:34:42.921Z,95036.14
2019-02-22T07:37:11.778Z,95038.02
2019-02-22T07:39:40.257Z,95033.08
2019-02-22T07:42:08.821Z,95038.80
2019-02-22T07:44:37.754Z,95025.70
2019-02-22T07:47:06.317Z,95029.97
2019-02-22T07:49:34.820Z,95026.66
2019-02-22T07:52:03.595Z,95028.27
2019-02-22T07:54:32.158Z,95022.41
2019-02-22T07:57:00.789Z,95022.41
2019-02-22T07:59:29.443Z,95017.22
2019-02-22T08:01:58.008Z,95018.66
2019-02-22T08:04:26.504Z,95019.34
2019-02-22T08:06:55.153Z,95017.89
2019-02-22T08:09:23.777Z,95015.26
2019-02-22T08:11:58.624Z,95008.17
2019-02-22T08:14:27.257Z,95003.88
2019-02-22T08:16:55.816Z,95006.30
2019-02-22T08:19:24.444Z,95000.55
2019-02-22T08:21:53.008Z,94999.85
2019-02-22T08:24:21.828Z,94995.94
2019-02-22T08:26:50.662Z,94990.88
2019-02-22T08:29:19.277Z,94983.23
2019-02-22T08:31:48.110Z,94980.12
2019-02-22T08:34:16.714Z,94977.52
2019-02-22T08:36:45.340Z,94972.55
2019-02-22T08:39:13.905Z,94970.16
2019-02-22T08:41:42.481Z,94967.91
2019-02-22T08:44:11.107Z,94958.56
2019-02-22T08:46:39.929Z,94966.86
2019-02-22T08:49:08.423Z,94959.45
2019-02-22T08:51:36.998Z,94963.19
2019-02-22T08:54:05.660Z,94960.10
2019-02-22T08:56:34.318Z,94956.11
2019-02-22T08:59:02.934Z,94952.73
2019-02-22T09:01:31.715Z,94955.09
2019-02-22T09:04:00.349Z,94944.42
2019-02-22T09:06:28.910Z,94942.63
2019-02-22T09:08:57.433Z,94936.62
2019-02-22T09:11:26.063Z,94949.06
2019-02-22T09:13:54.632Z,94943.06
2019-02-22T09:16:23.508Z,94935.47
2019-02-22T09:18:52.151Z,94931.41
2019-02-22T09:21:20.776Z,94929.44
2019-02-22T09:23:49.306Z,94928.53
2019-02-22T09:26:17.934Z,94934.94
2019-02-22T09:28:46.584Z,94931.14
2019-02-22T09:31:15.179Z,94924.70
2019-02-22T09:33:43.738Z,94929.34
2019-02-22T09:36:12.301Z,94928.20
2019-02-22T09:38:41.059Z,94932.37
2019-02-22T09:41:09.672Z,94935.58
2019-02-22T09:43:38.161Z,94928.61
2019-02-22T09:46:06.780Z,94928.44
2019-02-22T09:48:35.546Z,94930.61
2019-02-22T09:51:04.114Z,94926.53
2019-02-22T09:53:32.617Z,94926.36
2019-02-22T09:56:01.186Z,94911.34
2019-02-22T09:58:29.844Z,94923.49
2019-02-22T10:00:58.406Z,94922.73
2019-02-22T10:03:26.873Z,94911.34
2019-02-22T10:05:55.716Z,94911.22
2019-02-22T10:08:24.315Z,94920.34
2019-02-22T10:10:52.862Z,94910.83
2019-02-22T10:13:21.392Z,94912.57
2019-02-22T10:15:50.021Z,94905.95
2019-02-22T10:18:18.655Z,94899.34
2019-02-22T10:20:47.337Z,94900.60
2019-02-22T10:23:15.851Z,94899.02
2019-02-22T10:25:44.492Z,94895.41
2019-02-22T10:28:17.868Z,94882.64
2019-02-22T10:30:43.454Z,94881.15
2019-02-22T10:33:12.085Z,94886.20
2019-02-22T10:35:40.744Z,94882.67
2019-02-22T10:38:09.317Z,94875.36
2019-02-22T10:40:39.316Z,94868.97
2019-02-22T10:43:08.185Z,94861.58
2019-02-22T10:45:37.109Z,94861.69
2019-02-22T10:48:05.857Z,94853.33
2019-02-22T10:50:34.524Z,94857.47
2019-02-22T10:53:03.175Z,94848.02
2019-02-22T10:55:31.802Z,94840.83
2019-02-22T10:58:00.627Z,94840.80
2019-02-22T11:00:29.244Z,94841.55
2019-02-22T11:02:57.880Z,94839.81
2019-02-22T11:05:26.487Z,94835.03
2019-02-22T11:07:55.012Z,94829.12
2019-02-22T11:10:23.651Z,94833.03
2019-02-22T11:12:52.301Z,94828.34
2019-02-22T11:15:20.962Z,94826.38
2019-02-22T11:17:49.587Z,94823.80
2019-02-22T11:20:18.432Z,94819.35
2019-02-22T11:22:47.046Z,94801.40
2019-02-22T11:25:16.639Z,94816.41
2019-02-22T11:27:45.427Z,94817.20
2019-02-22T11:30:15.267Z,94821.17
2019-02-22T11:32:43.753Z,94811.30
2019-02-22T11:35:12.419Z,94803.83
2019-02-22T11:37:41.047Z,94790.15
2019-02-22T11:40:11.704Z,94795.85
2019-02-22T11:42:40.522Z,94794.45
2019-02-22T11:45:10.332Z,94790.43
2019-02-22T11:47:38.969Z,94788.80
2019-02-22T11:50:11.423Z,94789.63
2019-02-22T11:52:40.053Z,94793.38
2019-02-22T11:55:09.889Z,94780.19
2019-02-22T11:57:38.644Z,94782.45
2019-02-22T12:00:11.363Z,94780.80
2019-02-22T12:02:40.051Z,94771.70
2019-02-22T12:05:08.645Z,94767.23
2019-02-22T12:07:37.125Z,94755.30
2019-02-22T12:10:07.855Z,94761.30
2019-02-22T12:12:36.568Z,94759.14
2019-02-22T12:15:08.293Z,94751.75
2019-02-22T12:17:36.793Z,94756.52
2019-02-22T12:20:06.773Z,94751.85
2019-02-22T12:22:35.395Z,94745.33
2019-02-22T12:25:04.621Z,94743.50
2019-02-22T12:27:33.196Z,94743.30
2019-02-22T12:30:01.753Z,94738.70
2019-02-22T12:32:30.301Z,94735.91
2019-02-22T12:34:58.919Z,94742.07
2019-02-22T12:37:27.543Z,94735.71
2019-02-22T12:39:56.277Z,94737.97
2019-02-22T12:42:25.151Z,94735.84
2019-02-22T12:45:02.554Z,94726.91
2019-02-22T12:47:24.065Z,94727.16
2019-02-22T12:49:52.660Z,94729.88
2019-02-22T12:52:21.154Z,94737.89
2019-02-22T12:54:49.710Z,94735.55
2019-02-22T12:57:18.378Z,94733.89
2019-02-22T12:59:46.926Z,94739.34
2019-02-22T13:02:15.494Z,94736.45
2019-02-22T13:04:44.080Z,94734.66
2019-02-22T13:07:12.717Z,94733.59
2019-02-22T13:09:41.289Z,94738.42
2019-02-22T13:12:14.109Z,94734.78
2019-02-22T13:14:40.388Z,94729.73
2019-02-22T13:17:09.090Z,94728.22
2019-02-22T13:19:38.004Z,94721.78
2019-02-22T13:22:06.627Z,94723.03
2019-02-22T13:24:35.184Z,94724.39
2019-02-22T13:27:04.001Z,94722.38
2019-02-22T13:29:32.564Z,94723.87
2019-02-22T13:32:01.182Z,94724.08
2019-02-22T13:34:29.790Z,94722.93
2019-02-22T13:36:58.348Z,94720.97
2019-02-22T13:39:26.979Z,94713.69
2019-02-22T13:41:55.815Z,94718.30
2019-02-22T13:44:24.520Z,94715.58
2019-02-22T13:46:53.094Z,94711.31
2019-02-22T13:49:21.903Z,94710.66
2019-02-22T13:51:50.531Z,94707.68
2019-02-22T13:54:19.094Z,94715.26
2019-02-22T13:56:48.153Z,94710.15
2019-02-22T13:59:16.811Z,94709.05
2019-02-22T14:01:45.402Z,94708.56
2019-02-22T14:04:14.068Z,94704.63
2019-02-22T14:06:42.705Z,94704.61
2019-02-22T14:09:11.306Z,94699.09
2019-02-22T14:11:40.805Z,94701.09
2019-02-22T14:14:09.363Z,94693.98
2019-02-22T14:16:38.010Z,94700.28
2019-02-22T14:19:06.699Z,94706.97
2019-02-22T14:21:35.234Z,94700.06
2019-02-22T14:24:03.785Z,94699.43
2019-02-22T14:26:32.471Z,94689.42
2019-02-22T14:29:01.038Z,94699.34
2019-02-22T14:31:29.656Z,94700.32
2019-02-22T14:33:58.212Z,94686.77
2019-02-22T14:36:29.054Z,94699.29
2019-02-22T14:38:57.119Z,94700.27
2019-02-22T14:41:27.937Z,94695.08
2019-02-22T14:43:56.200Z,94692.81
2019-02-22T14:46:26.167Z,94691.92
2019-02-22T14:48:54.891Z,94689.17
2019-02-22T14:51:23.511Z,94690.03
2019-02-22T14:53:52.350Z,94695.02
2019-02-22T14:56:20.830Z,94694.38
2019-02-22T14:58:49.459Z,94697.38
2019-02-22T15:01:18.094Z,94692.14
2019-02-22T15:03:46.977Z,94690.16
2019-02-22T15:06:15.744Z,94689.36
2019-02-22T15:08:44.311Z,94696.77
2019-02-22T15:11:12.958Z,94693.39
2019-02-22T15:13:41.508Z,94700.12
2019-02-22T15:16:28.089Z,94701.38
2019-02-22T15:18:56.711Z,94696.53
2019-02-22T15:21:25.338Z,94705.20
2019-02-22T15:23:54.191Z,94699.37
2019-02-22T15:26:22.814Z,94696.05
2019-02-22T15:28:51.343Z,94700.36
2019-02-22T15:31:20.083Z,94696.77
2019-02-22T15:33:48.633Z,94700.46
2019-02-22T15:36:17.234Z,94699.91
2019-02-22T15:38:45.856Z,94700.42
2019-02-22T15:41:14.478Z,94689.70
2019-02-22T15:43:43.349Z,94702.85
2019-02-22T15:46:12.609Z,94705.40
2019-02-22T15:48:41.295Z,94707.31
2019-02-22T15:51:10.062Z,94708.89
2019-02-22T15:53:38.604Z,94712.62
2019-02-22T15:56:07.252Z,94708.05
2019-02-22T15:58:35.918Z,94709.86
2019-02-22T16:01:04.746Z,94715.45
2019-02-22T16:03:50.359Z,94705.33
2019-02-22T16:06:19.012Z,94709.59
2019-02-22T16:08:47.644Z,94712.55
2019-02-22T16:11:16.497Z,94717.05
2019-02-22T16:13:45.149Z,94714.33
2019-02-22T16:16:22.960Z,94721.27
2019-02-22T16:18:44.187Z,94718.61
2019-02-22T16:21:12.674Z,94730.78
2019-02-22T16:23:41.297Z,94724.09
2019-02-22T16:26:10.040Z,94717.53
2019-02-22T16:28:38.660Z,94735.48
2019-02-22T16:31:07.564Z,94727.22
2019-02-22T16:33:36.216Z,94736.84
2019-02-22T16:36:04.713Z,94733.84
2019-02-22T16:38:33.259Z,94735.17
2019-02-22T16:41:01.925Z,94733.45
2019-02-22T16:43:30.494Z,94728.86
2019-02-22T16:45:59.119Z,94737.36
2019-02-22T16:48:28.011Z,94741.73
2019-02-22T16:50:56.654Z,94749.10
2019-02-22T16:53:25.206Z,94750.98
2019-02-22T16:55:53.760Z,94744.92
2019-02-22T16:58:22.310Z,94747.34
2019-02-22T17:00:50.947Z,94735.22
2019-02-22T17:03:19.620Z,94744.63
2019-02-22T17:05:48.185Z,94747.77
2019-02-22T17:08:16.753Z,94756.37
2019-02-22T17:10:45.558Z,94752.52
2019-02-22T17:13:14.196Z,94751.16
2019-02-22T17:15:42.843Z,94759.30
2019-02-22T17:18:11.514Z,94754.64
2019-02-22T17:20:40.014Z,94764.16
2019-02-22T17:23:08.587Z,94762.61
2019-02-22T17:25:37.252Z,94757.26
2019-02-22T17:28:05.798Z,94755.80
2019-02-22T17:30:34.325Z,94762.39
2019-02-22T17:33:02.929Z,94759.58
2019-02-22T17:35:31.604Z,94764.56
2019-02-22T17:38:00.144Z,94761.61
2019-02-22T17:40:31.271Z,94764.86
2019-02-22T17:42:59.905Z,94770.39
2019-02-22T17:45:28.537Z,94770.55
2019-02-22T17:47:57.269Z,94766.98
2019-02-22T17:50:25.851Z,94761.35
2019-02-22T17:52:54.398Z,94765.05
2019-02-22T17:55:22.945Z,94768.94
2019-02-22T17:57:51.503Z,94759.52
2019-02-22T18:00:21.758Z,94759.10
2019-02-22T18:02:50.438Z,94755.89
2019-02-22T18:05:18.993Z,94760.56
2019-02-22T18:07:47.561Z,94756.70
2019-02-22T18:10:16.228Z,94754.85
2019-02-22T18:12:44.811Z,94748.59
2019-02-22T18:15:17.610Z,94749.53
2019-02-22T18:17:47.286Z,94736.77
2019-02-22T18:20:15.900Z,94728.26
2019-02-22T18:22:44.482Z,94747.18
2019-02-22T18:25:13.525Z,94744.17
2019-02-22T18:27:42.089Z,94742.05
2019-02-22T18:30:19.594Z,94741.73
2019-02-22T18:32:48.378Z,94739.33
2019-02-22T18:35:17.277Z,94741.20
2019-02-22T18:37:45.886Z,94731.28
2019-02-22T18:40:22.147Z,94723.05
2019-02-22T18:42:51.009Z,94724.33
2019-02-22T18:45:19.651Z,94724.50
2019-02-22T18:47:48.204Z,94724.58
2019-02-22T18:50:16.828Z,94718.65
2019-02-22T18:52:45.415Z,94716.61
2019-02-22T18:55:14.039Z,94720.50
2019-02-22T18:57:42.655Z,94713.20
2019-02-22T19:00:21.178Z,94720.41
2019-02-22T19:02:50.274Z,94720.98
2019-02-22T19:05:18.927Z,94713.84
2019-02-22T19:07:47.566Z,94716.92
2019-02-22T19:10:19.951Z,94715.64
2019-02-22T19:12:48.510Z,94712.83
2019-02-22T19:15:17.242Z,94716.06
2019-02-22T19:17:46.036Z,94714.20
2019-02-22T19:20:16.571Z,94712.92
2019-02-22T19:22:45.199Z,94717.59
2019-02-22T19:25:13.873Z,94714.88
2019-02-22T19:27:42.500Z,94709.17
2019-02-22T19:30:19.332Z,94713.15
2019-02-22T19:32:48.113Z,94712.58
2019-02-22T19:35:16.707Z,94715.39
2019-02-22T19:37:45.620Z,94722.38
2019-02-22T19:40:20.245Z,94709.73
2019-02-22T19:42:48.824Z,94713.73
2019-02-22T19:45:17.623Z,94713.06
2019-02-22T19:47:46.258Z,94712.05
2019-02-22T19:50:15.197Z,94709.59
2019-02-22T19:52:43.817Z,94709.08
2019-02-22T19:55:16.996Z,94708.98
2019-02-22T19:57:45.556Z,94708.31
2019-02-22T20:00:18.861Z,94704.59
2019-02-22T20:02:47.471Z,94706.64
2019-02-22T20:05:16.312Z,94703.55
2019-02-22T20:07:45.004Z,94700.56
2019-02-22T20:10:18.177Z,94696.27
2019-02-22T20:12:46.300Z,94686.31
2019-02-22T20:15:18.697Z,94689.30
2019-02-22T20:17:53.770Z,94687.63
2019-02-22T20:20:18.677Z,94686.27
2019-02-22T20:22:47.564Z,94690.91
2019-02-22T20:25:16.270Z,94679.38
2019-02-22T20:27:44.901Z,94680.16
2019-02-22T20:30:17.755Z,94674.81
2019-02-22T20:32:46.348Z,94679.03
2019-02-22T20:35:17.617Z,94677.77
2019-02-22T20:37:52.550Z,94672.69
2019-02-22T20:40:16.573Z,94677.86
2019-02-22T20:42:45.202Z,94681.53
2019-02-22T20:45:14.082Z,94679.23
2019-02-22T20:47:42.718Z,94675.59
2019-02-22T20:50:12.550Z,94671.08
2019-02-22T20:52:41.220Z,94669.31
2019-02-22T20:55:10.750Z,94675.43
2019-02-22T20:57:39.310Z,94675.26
2019-02-22T21:00:25.116Z,94673.58
2019-02-22T21:02:53.681Z,94679.33
2019-02-22T21:05:22.538Z,94672.87
2019-02-22T21:07:51.094Z,94681.61
2019-02-22T21:10:20.940Z,94686.88
2019-02-22T21:12:49.838Z,94683.73
2019-02-22T21:15:18.408Z,94671.92
2019-02-22T21:17:46.994Z,94675.89
2019-02-22T21:20:20.766Z,94668.80
2019-02-22T21:22:49.403Z,94663.69
2019-02-22T21:25:18.029Z,94675.42
2019-02-22T21:27:46.634Z,94669.98
2019-02-22T21:30:16.862Z,94667.25
2019-02-22T21:32:45.500Z,94671.84
2019-02-22T21:35:14.169Z,94665.89
2019-02-22T21:37:43.609Z,94666.73
2019-02-22T21:40:13.145Z,94668.19
2019-02-22T21:42:41.754Z,94675.23
2019-02-22T21:45:15.170Z,94673.67
2019-02-22T21:47:54.435Z,94666.78
2019-02-22T21:50:15.476Z,94675.38
2019-02-22T21:52:43.861Z,94675.28
2019-02-22T21:55:16.109Z,94672.30
2019-02-22T21:57:44.693Z,94673.97
2019-02-22T22:00:18.567Z,94675.99
2019-02-22T22:02:47.190Z,94667.08
2019-02-22T22:05:15.949Z,94672.34
2019-02-22T22:07:44.499Z,94672.09
2019-02-22T22:10:13.209Z,94676.33
2019-02-22T22:12:42.052Z,94677.55
2019-02-22T22:15:12.607Z,94675.59
2019-02-22T22:17:41.243Z,94676.88
2019-02-22T22:20:11.392Z,94677.95
2019-02-22T22:22:40.102Z,94685.20
2019-02-22T22:25:10.719Z,94685.67
2019-02-22T22:27:39.486Z,94695.78
2019-02-22T22:30:10.778Z,94694.56
2019-02-22T22:32:39.399Z,94706.94
2019-02-22T22:35:14.092Z,94711.58
2019-02-22T22:37:42.724Z,94712.70
2019-02-22T22:40:11.652Z,94729.55
2019-02-22T22:42:40.313Z,94736.57
2019-02-22T22:45:13.169Z,94741.94
2019-02-22T22:47:44.695Z,94751.08
2019-02-22T22:50:17.243Z,94761.51
2019-02-22T22:52:45.961Z,94770.58
2019-02-22T22:55:14.636Z,94776.66
2019-02-22T22:57:43.198Z,94805.83
2019-02-22T23:00:40.179Z,94823.58
2019-02-22T23:03:08.891Z,94827.05
2019-02-22T23:05:37.510Z,94867.06
2019-02-22T23:08:06.174Z,94887.63
2019-02-22T23:10:34.803Z,94881.00
2019-02-22T23:13:03.378Z,94901.73
2019-02-22T23:15:32.157Z,94921.70
2019-02-22T23:18:00.705Z,94938.42
2019-02-22T23:20:29.258Z,94952.77
2019-02-22T23:22:57.919Z,94964.36
2019-02-22T23:25:26.540Z,94954.05
2019-02-22T23:27:55.155Z,94944.61
2019-02-22T23:30:23.681Z,94954.63
2019-02-22T23:32:52.309Z,94967.52
2019-02-22T23:35:21.336Z,94976.09
2019-02-22T23:37:49.952Z,94974.17
2019-02-22T23:40:18.442Z,95001.76
2019-02-22T23:42:47.116Z,95001.76
2019-02-22T23:45:15.793Z,95011.77
2019-02-22T23:47:44.352Z,95023.52
2019-02-22T23:50:12.977Z,95039.66
2019-02-22T23:52:41.662Z,95047.55
2019-02-22T23:55:10.233Z,95071.78
2019-02-22T23:57:38.871Z,95071.78
